Time;durP1;ratioP1;P1;durP2;ratioP2;P2;SDS_P1;SDS_P2;PMS_P1;PMS_P2;Temp;Humidity;BMP_temperature;BMP_pressure;BME280_temperature;BME280_humidity;BME280_pressure;Samples;Min_cycle;Max_cycle;Signal;HPM_P1;HPM_P2
2022/06/26 00:01:01;;;;;;;;;;;;;;;-140.72;78.85;52508.56;5081101;28;19928;-67
2022/06/26 00:03:27;;;;;;;;;;;;;;;-140.72;79.75;52486.22;5083068;28;19922;-68
2022/06/26 00:05:52;;;;;;;;;;;;;;;-140.72;81.58;52492.31;5082373;28;19920;-67
2022/06/26 00:08:18;;;;;;;;;;;;;;;-140.72;83.56;52478.13;5082367;28;19924;-67
2022/06/26 00:10:45;;;;;;;;;;;;;;;-140.72;85.05;52482.16;5077613;28;19917;-68
2022/06/26 00:13:10;;;;;;;;;;;;;;;-140.72;87.91;52463.91;5073517;28;19927;-68
2022/06/26 00:15:35;;;;;;;;;;;;;;;-140.72;89.47;52512.59;5071732;28;20362;-68
2022/06/26 00:18:00;;;;;;;;;;;;;;;-140.72;91.14;52500.44;5082727;28;20297;-68
2022/06/26 00:20:26;;;;;;;;;;;;;;;-140.72;93.17;52512.59;5081225;28;19924;-68
2022/06/26 00:22:51;;;;;;;;;;;;;;;-140.72;96.56;52508.56;5080518;28;19924;-67
2022/06/26 00:25:16;;;;;;;;;;;;;;;-140.72;98.41;52506.53;5078707;28;19931;-67
2022/06/26 00:27:41;;;;;;;;;;;;;;;-140.72;100.00;52480.16;5065823;28;19924;-68
2022/06/26 00:30:07;;;;;;;;;;;;;;;-140.72;100.00;52520.72;5069385;28;20378;-68
2022/06/26 00:32:32;;;;;;;;;;;;;;;-140.72;100.00;52516.66;5079751;28;19924;-68
2022/06/26 00:34:57;;;;;;;;;;;;;;;-140.72;100.00;52536.97;5064402;28;19916;-68
2022/06/26 00:37:23;;;;;;;;;;;;;;;-140.72;100.00;52524.78;5083882;28;19916;-67
2022/06/26 00:39:48;;;;;;;;;;;;;;;-140.72;100.00;52512.59;5085210;28;20295;-68
2022/06/26 00:42:13;;;;;;;;;;;;;;;-140.72;100.00;52551.16;5069617;28;19917;-67
2022/06/26 00:44:38;;;;;;;;;;;;;;;-140.72;100.00;52524.78;5079259;28;19949;-68
2022/06/26 00:47:03;;;;;;;;;;;;;;;-140.72;100.00;52536.97;5076729;28;19917;-68
2022/06/26 00:49:29;;;;;;;;;;;;;;;-140.72;100.00;52524.78;5083967;28;20385;-67
2022/06/26 00:51:55;;;;;;;;;;;;;;;-140.72;100.00;52516.66;5077515;28;19951;-67
2022/06/26 00:54:21;;;;;;;;;;;;;;;-140.72;100.00;52553.19;5085263;28;20377;-68
2022/06/26 00:56:50;;;;;;;;;;;;;;;-140.72;100.00;52506.53;5077921;28;19921;-68
2022/06/26 00:59:16;;;;;;;;;;;;;;;-140.72;100.00;52514.63;5113593;28;19920;-67
2022/06/26 01:01:42;;;;;;;;;;;;;;;-140.72;100.00;52555.22;5082008;28;19974;-68
2022/06/26 01:04:07;;;;;;;;;;;;;;;-140.72;100.00;52524.78;5078650;28;19968;-67
2022/06/26 01:06:34;;;;;;;;;;;;;;;-140.72;100.00;52506.53;5087128;28;20281;-67
2022/06/26 01:08:59;;;;;;;;;;;;;;;-140.72;100.00;52532.91;5086411;28;19920;-67
2022/06/26 01:11:25;;;;;;;;;;;;;;;-140.72;100.00;52547.09;5076137;28;19924;-68
2022/06/26 01:13:52;;;;;;;;;;;;;;;-140.72;100.00;52524.78;5084684;28;19951;-67
2022/06/26 01:16:18;;;;;;;;;;;;;;;-140.72;100.00;52551.16;5084379;28;19923;-68
2022/06/26 01:18:44;;;;;;;;;;;;;;;-140.72;100.00;52585.66;5082127;28;19979;-67
2022/06/26 01:21:09;;;;;;;;;;;;;;;-140.72;100.00;52541.03;5076722;28;19921;-67
2022/06/26 01:23:35;;;;;;;;;;;;;;;-140.72;100.00;52536.97;5081297;28;19998;-67
2022/06/26 01:26:00;;;;;;;;;;;;;;;-140.72;100.00;52536.97;5081942;28;19923;-68
2022/06/26 01:28:25;;;;;;;;;;;;;;;-140.72;100.00;52524.78;5085409;28;19917;-68
2022/06/26 01:30:50;;;;;;;;;;;;;;;-140.72;100.00;52565.38;5085298;28;19924;-67
2022/06/26 01:33:15;;;;;;;;;;;;;;;-140.72;100.00;52553.19;5069691;28;20388;-67
2022/06/26 01:35:41;;;;;;;;;;;;;;;-140.72;100.00;52536.97;5077604;28;19917;-68
2022/06/26 01:38:10;;;;;;;;;;;;;;;-140.72;100.00;52553.19;5084335;28;19983;-68
2022/06/26 01:40:36;;;;;;;;;;;;;;;-140.72;100.00;52549.13;5086219;28;19917;-68
2022/06/26 01:43:01;;;;;;;;;;;;;;;-140.72;100.00;52504.50;5083571;28;19917;-68
2022/06/26 01:45:26;;;;;;;;;;;;;;;-140.72;100.00;52520.72;5076286;28;19917;-67
2022/06/26 01:47:53;;;;;;;;;;;;;;;-140.72;100.00;52553.19;5086483;28;19917;-68
2022/06/26 01:50:18;;;;;;;;;;;;;;;-140.72;100.00;52536.97;5085456;28;19987;-68
2022/06/26 01:52:44;;;;;;;;;;;;;;;-140.72;100.00;52522.75;5085758;28;19923;-68
2022/06/26 01:55:09;;;;;;;;;;;;;;;-140.72;100.00;52545.06;5086263;28;19925;-68
2022/06/26 01:57:34;;;;;;;;;;;;;;;-140.72;100.00;52532.91;5084996;28;20316;-68
2022/06/26 01:59:59;;;;;;;;;;;;;;;-140.72;100.00;52545.06;5084350;28;19917;-67
2022/06/26 02:02:24;;;;;;;;;;;;;;;-140.72;100.00;52516.66;5085759;28;19923;-68
2022/06/26 02:04:51;;;;;;;;;;;;;;;-140.72;100.00;52520.72;5081427;28;19939;-67
2022/06/26 02:07:16;;;;;;;;;;;;;;;-140.72;100.00;52532.91;5085853;28;20015;-67
2022/06/26 02:15:09;;;;;;;;;;;;;;;-140.72;100.00;52593.78;5086563;28;19930;-68
2022/06/26 02:17:34;;;;;;;;;;;;;;;-140.72;100.00;52585.66;5085400;28;19923;-68
2022/06/26 02:20:00;;;;;;;;;;;;;;;-140.72;100.00;52563.34;5086131;28;19939;-68
2022/06/26 02:22:25;;;;;;;;;;;;;;;-140.72;100.00;52557.25;5072068;28;19962;-68
2022/06/26 02:24:50;;;;;;;;;;;;;;;-140.72;100.00;52528.84;5085998;28;19917;-67
2022/06/26 02:27:15;;;;;;;;;;;;;;;-140.72;100.00;52563.34;5086247;28;19916;-67
2022/06/26 02:29:40;;;;;;;;;;;;;;;-140.72;100.00;52557.25;5086310;28;20019;-68
2022/06/26 02:32:06;;;;;;;;;;;;;;;-140.72;100.00;52549.13;5084245;28;20352;-67
2022/06/26 02:37:06;;;;;;;;;;;;;;;-140.72;100.00;52541.03;5588653;23;20487;-69
2022/06/26 02:39:31;;;;;;;;;;;;;;;-140.72;100.00;52561.31;5053611;28;19925;-69
2022/06/26 02:41:56;;;;;;;;;;;;;;;-140.72;100.00;52553.19;5053649;28;19921;-69
2022/06/26 02:44:22;;;;;;;;;;;;;;;-140.72;100.00;52557.25;5053963;28;19917;-71
2022/06/26 02:46:47;;;;;;;;;;;;;;;-140.72;100.00;52581.59;5052380;28;19938;-69
2022/06/26 02:49:12;;;;;;;;;;;;;;;-140.72;100.00;52559.28;5053898;28;19917;-71
2022/06/26 02:51:38;;;;;;;;;;;;;;;-140.72;100.00;52559.28;5053591;28;19921;-69
2022/06/26 02:54:03;;;;;;;;;;;;;;;-140.72;100.00;52599.88;5053603;28;20354;-69
2022/06/26 02:56:28;;;;;;;;;;;;;;;-140.72;100.00;52559.28;5053364;28;19932;-69
2022/06/26 02:58:53;;;;;;;;;;;;;;;-140.72;100.00;52618.13;5053114;28;19916;-69
2022/06/26 03:01:18;;;;;;;;;;;;;;;-140.72;100.00;52577.53;5052308;28;20348;-69
2022/06/26 03:03:44;;;;;;;;;;;;;;;-140.72;100.00;52557.25;5052383;28;19917;-69
2022/06/26 03:06:09;;;;;;;;;;;;;;;-140.72;100.00;52618.13;5053420;28;19921;-69
2022/06/26 03:08:34;;;;;;;;;;;;;;;-140.72;100.00;52559.28;5053492;28;19999;-70
2022/06/26 03:10:59;;;;;;;;;;;;;;;-140.72;100.00;52559.28;5040009;28;20035;-69
2022/06/26 03:13:24;;;;;;;;;;;;;;;-140.72;100.00;52591.75;5053170;28;20433;-69
2022/06/26 03:15:49;;;;;;;;;;;;;;;-140.72;100.00;52575.50;5044414;28;19924;-69
2022/06/26 03:18:15;;;;;;;;;;;;;;;-140.72;100.00;52581.59;5048248;28;19970;-69
2022/06/26 03:20:41;;;;;;;;;;;;;;;-140.72;100.00;52551.16;5053054;28;19917;-69
2022/06/26 03:23:06;;;;;;;;;;;;;;;-140.72;100.00;52581.59;5053215;28;19966;-69
2022/06/26 03:25:32;;;;;;;;;;;;;;;-140.72;100.00;52543.03;5035280;28;20366;-69
2022/06/26 03:27:57;;;;;;;;;;;;;;;-140.72;100.00;52561.31;5052734;28;19924;-69
2022/06/26 03:30:22;;;;;;;;;;;;;;;-140.72;100.00;52595.81;5053114;28;19924;-69
2022/06/26 03:32:47;;;;;;;;;;;;;;;-140.72;100.00;52573.50;5035803;28;19936;-69
2022/06/26 03:35:12;;;;;;;;;;;;;;;-140.72;100.00;52587.69;5032973;28;19917;-70
2022/06/26 03:37:38;;;;;;;;;;;;;;;-140.72;100.00;52612.03;5060993;28;20410;-69
2022/06/26 03:40:03;;;;;;;;;;;;;;;-140.72;100.00;52557.25;5032759;28;20028;-69
2022/06/26 03:42:29;;;;;;;;;;;;;;;-140.72;100.00;52591.75;5064797;28;19968;-69
2022/06/26 03:44:54;;;;;;;;;;;;;;;-140.72;100.00;52577.53;5064088;28;20397;-69
2022/06/26 03:47:19;;;;;;;;;;;;;;;-140.72;100.00;52528.84;5064855;28;19917;-69
2022/06/26 03:49:44;;;;;;;;;;;;;;;-140.72;100.00;52591.75;5064051;28;20047;-69
2022/06/26 03:52:09;;;;;;;;;;;;;;;-140.72;100.00;52569.44;5032725;28;19928;-71
2022/06/26 03:54:35;;;;;;;;;;;;;;;-140.72;100.00;52597.84;5020179;28;20337;-69
2022/06/26 03:57:00;;;;;;;;;;;;;;;-140.72;100.00;52587.69;5032526;28;19917;-70
2022/06/26 03:59:25;;;;;;;;;;;;;;;-140.72;100.00;52577.53;5032975;28;19940;-69
2022/06/26 04:01:50;;;;;;;;;;;;;;;-140.72;100.00;52551.16;5032950;28;19940;-69
2022/06/26 04:04:16;;;;;;;;;;;;;;;-140.72;100.00;52605.94;5064324;28;20382;-69
2022/06/26 04:06:41;;;;;;;;;;;;;;;-140.72;100.00;52581.59;5064946;28;19917;-69
2022/06/26 04:09:06;;;;;;;;;;;;;;;-140.72;100.00;52573.50;5032121;28;19956;-69
2022/06/26 04:11:31;;;;;;;;;;;;;;;-140.72;100.00;52610.00;5032825;28;19921;-70
2022/06/26 04:13:57;;;;;;;;;;;;;;;-140.72;100.00;52567.41;5054836;28;19917;-69
2022/06/26 04:16:22;;;;;;;;;;;;;;;-140.72;100.00;52522.75;5036659;28;19917;-69
2022/06/26 04:18:47;;;;;;;;;;;;;;;-140.72;100.00;52589.72;5036508;28;19979;-69
2022/06/26 04:21:12;;;;;;;;;;;;;;;-140.72;100.00;52577.53;5067736;28;20417;-69
2022/06/26 04:23:38;;;;;;;;;;;;;;;-140.72;100.00;52561.31;5048326;28;19918;-69
2022/06/26 04:26:04;;;;;;;;;;;;;;;-140.72;100.00;52539.00;5030438;28;19917;-68
2022/06/26 04:28:30;;;;;;;;;;;;;;;-140.72;100.00;52589.72;5035423;28;19917;-68
2022/06/26 04:30:55;;;;;;;;;;;;;;;-140.72;100.00;52543.03;5068236;28;19987;-69
2022/06/26 04:33:20;;;;;;;;;;;;;;;-140.72;100.00;52520.72;5036024;28;19948;-69
2022/06/26 04:35:45;;;;;;;;;;;;;;;-140.72;100.00;52522.75;5068398;28;19928;-69
2022/06/26 04:38:11;;;;;;;;;;;;;;;-140.72;100.00;52569.44;5035935;28;19979;-69
2022/06/26 04:40:36;;;;;;;;;;;;;;;-140.72;100.00;52551.16;5035170;28;20447;-68
2022/06/26 04:43:02;;;;;;;;;;;;;;;-140.72;100.00;52545.06;5036635;28;19924;-69
2022/06/26 04:45:27;;;;;;;;;;;;;;;-140.72;100.00;52559.28;5036151;28;19924;-69
2022/06/26 04:47:52;;;;;;;;;;;;;;;-140.72;100.00;52573.50;5035872;28;19936;-68
2022/06/26 04:50:17;;;;;;;;;;;;;;;-140.72;100.00;52553.19;5036497;28;19921;-70
2022/06/26 04:52:43;;;;;;;;;;;;;;;-140.72;100.00;52547.09;5037050;28;19928;-71
2022/06/26 04:55:08;;;;;;;;;;;;;;;-140.72;100.00;52569.44;5030839;28;19969;-73
2022/06/26 04:57:34;;;;;;;;;;;;;;;-140.72;100.00;52541.03;5050155;28;19964;-71
2022/06/26 04:59:59;;;;;;;;;;;;;;;-140.72;100.00;52549.13;5036340;28;19925;-71
2022/06/26 05:02:24;;;;;;;;;;;;;;;-140.72;100.00;52547.09;5035492;28;19959;-71
2022/06/26 05:04:49;;;;;;;;;;;;;;;-140.72;100.00;52547.09;5036722;28;19921;-72
2022/06/26 05:07:15;;;;;;;;;;;;;;;-140.72;100.00;52534.94;5044216;28;19987;-75
2022/06/26 05:09:40;;;;;;;;;;;;;;;-140.72;100.00;52539.00;5032651;28;19939;-72
2022/06/26 05:12:05;;;;;;;;;;;;;;;-140.72;100.00;52543.03;5035736;28;19948;-71
2022/06/26 05:14:30;;;;;;;;;;;;;;;-140.72;100.00;52569.44;5036578;28;19917;-69
2022/06/26 05:16:56;;;;;;;;;;;;;;;-140.72;100.00;52534.94;5036208;28;19928;-69
2022/06/26 05:19:21;;;;;;;;;;;;;;;-140.72;100.00;52524.78;5035232;28;19967;-70
2022/06/26 05:21:46;;;;;;;;;;;;;;;-140.72;100.00;52553.19;5035060;28;19932;-69
2022/06/26 05:24:11;;;;;;;;;;;;;;;-140.72;100.00;52559.28;5034226;28;20000;-69
2022/06/26 05:26:39;;;;;;;;;;;;;;;-140.72;100.00;52518.69;5036503;28;19918;-69
2022/06/26 05:29:04;;;;;;;;;;;;;;;-140.72;100.00;52520.72;5035857;28;19972;-70
2022/06/26 05:31:29;;;;;;;;;;;;;;;-140.72;100.00;52539.00;5035280;28;19921;-72
2022/06/26 05:33:54;;;;;;;;;;;;;;;-140.72;100.00;52528.84;5036087;28;19918;-70
2022/06/26 05:36:20;;;;;;;;;;;;;;;-140.72;100.00;52561.31;5035395;28;19979;-72
2022/06/26 05:38:45;;;;;;;;;;;;;;;-140.72;100.00;52530.88;5035777;28;19917;-70
2022/06/26 05:41:10;;;;;;;;;;;;;;;-140.72;100.00;52539.00;5036718;28;19992;-69
2022/06/26 05:43:36;;;;;;;;;;;;;;;-140.72;100.00;52506.53;5034668;28;19932;-69
2022/06/26 05:46:02;;;;;;;;;;;;;;;-140.72;100.00;52549.13;5030848;28;19921;-70
2022/06/26 05:48:27;;;;;;;;;;;;;;;-140.72;100.00;52530.88;5033893;28;19921;-72
2022/06/26 05:50:53;;;;;;;;;;;;;;;-140.72;100.00;52563.34;5034109;28;19917;-71
2022/06/26 05:53:18;;;;;;;;;;;;;;;-140.72;100.00;52541.03;5035581;28;19917;-70
2022/06/26 05:55:44;;;;;;;;;;;;;;;-140.72;100.00;52500.44;5036341;28;19951;-70
2022/06/26 05:58:09;;;;;;;;;;;;;;;-140.72;100.00;52520.72;5037888;28;19928;-70
2022/06/26 06:00:35;;;;;;;;;;;;;;;-140.72;100.00;52545.06;5035531;28;19943;-70
2022/06/26 06:03:00;;;;;;;;;;;;;;;-140.72;100.00;52530.88;5033512;28;19921;-70
2022/06/26 06:05:28;;;;;;;;;;;;;;;-140.72;100.00;52522.75;5032726;28;20008;-71
2022/06/26 06:07:54;;;;;;;;;;;;;;;-140.72;100.00;52534.94;5031012;28;19917;-69
2022/06/26 06:10:19;;;;;;;;;;;;;;;-140.72;100.00;52512.59;5032721;28;19965;-70
2022/06/26 06:12:45;;;;;;;;;;;;;;;-140.72;100.00;52526.81;5031112;28;19924;-73
2022/06/26 06:15:10;;;;;;;;;;;;;;;-140.72;100.00;52504.50;5031918;28;19971;-71
2022/06/26 06:17:36;;;;;;;;;;;;;;;-140.72;100.00;52539.00;5032971;28;20377;-71
2022/06/26 06:20:03;;;;;;;;;;;;;;;-140.72;100.00;52508.56;5032266;28;19921;-70
2022/06/26 06:22:29;;;;;;;;;;;;;;;-140.72;100.00;52508.56;5046629;28;19921;-70
2022/06/26 06:24:54;;;;;;;;;;;;;;;-140.72;100.00;52524.78;5032748;28;20012;-70
2022/06/26 06:27:19;;;;;;;;;;;;;;;-140.72;100.00;52508.56;5032658;28;19968;-69
2022/06/26 06:29:44;;;;;;;;;;;;;;;-140.72;100.00;52530.88;5033051;28;19960;-71
2022/06/26 06:32:09;;;;;;;;;;;;;;;-140.72;100.00;52488.25;5047525;28;19928;-70
2022/06/26 06:34:35;;;;;;;;;;;;;;;-140.72;100.00;52516.66;5035599;28;19917;-71
2022/06/26 06:37:00;;;;;;;;;;;;;;;-140.72;100.00;52492.31;5041163;28;19921;-70
2022/06/26 06:39:25;;;;;;;;;;;;;;;-140.72;100.00;52512.59;5039872;28;19921;-70
2022/06/26 06:41:50;;;;;;;;;;;;;;;-140.72;100.00;52514.63;5036028;28;19924;-70
2022/06/26 06:44:16;;;;;;;;;;;;;;;-140.72;100.00;52522.75;5035618;28;19928;-70
2022/06/26 06:46:41;;;;;;;;;;;;;;;-140.72;100.00;52472.03;5035457;28;19939;-68
2022/06/26 06:49:06;;;;;;;;;;;;;;;-140.72;100.00;52534.94;5037617;28;19932;-70
2022/06/26 06:51:31;;;;;;;;;;;;;;;-140.72;100.00;52488.25;5036311;28;19917;-72
2022/06/26 06:53:56;;;;;;;;;;;;;;;-140.72;100.00;52459.84;5064706;28;20016;-72
2022/06/26 06:56:22;;;;;;;;;;;;;;;-140.72;100.00;52502.47;5033935;28;19940;-72
2022/06/26 06:58:47;;;;;;;;;;;;;;;-140.72;100.00;52510.59;5033938;28;19943;-71
2022/06/26 07:01:12;;;;;;;;;;;;;;;-140.72;100.00;52508.56;5034632;28;19921;-73
2022/06/26 07:03:39;;;;;;;;;;;;;;;-140.72;100.00;52484.19;5034332;28;20071;-72
2022/06/26 07:06:04;;;;;;;;;;;;;;;-140.72;100.00;52498.41;5034270;28;20390;-72
2022/06/26 07:08:29;;;;;;;;;;;;;;;-140.72;100.00;52465.94;5033144;28;19929;-72
2022/06/26 07:10:55;;;;;;;;;;;;;;;-140.72;100.00;52524.78;5031984;28;19917;-72
2022/06/26 07:13:20;;;;;;;;;;;;;;;-140.72;100.00;52492.31;5031788;28;19917;-72
2022/06/26 07:15:45;;;;;;;;;;;;;;;-140.72;100.00;52496.38;5033498;28;19923;-71
2022/06/26 07:18:10;;;;;;;;;;;;;;;-140.72;100.00;52467.97;5034691;28;19964;-72
2022/06/26 07:20:35;;;;;;;;;;;;;;;-140.72;100.00;52488.25;5033512;28;20020;-72
2022/06/26 07:23:01;;;;;;;;;;;;;;;-140.72;100.00;52532.91;5036624;28;19917;-75
2022/06/26 07:25:26;;;;;;;;;;;;;;;-140.72;100.00;52545.06;5034313;28;19925;-73
2022/06/26 07:27:51;;;;;;;;;;;;;;;-140.72;100.00;52492.31;5036368;28;19925;-72
2022/06/26 07:30:16;;;;;;;;;;;;;;;-140.72;100.00;52506.53;5035181;28;19917;-72
2022/06/26 07:32:42;;;;;;;;;;;;;;;-140.72;100.00;52486.22;5035950;28;20227;-72
2022/06/26 07:35:07;;;;;;;;;;;;;;;-140.72;100.00;52508.56;5037238;28;19975;-72
2022/06/26 07:37:33;;;;;;;;;;;;;;;-140.72;100.00;52486.22;5035738;28;19925;-72
2022/06/26 07:39:58;;;;;;;;;;;;;;;-140.72;100.00;52486.22;5034271;28;19921;-71
2022/06/26 07:42:23;;;;;;;;;;;;;;;-140.72;100.00;52488.25;5064485;28;19921;-71
2022/06/26 07:44:49;;;;;;;;;;;;;;;-140.72;100.00;52474.06;5040343;28;19943;-73
2022/06/26 07:47:14;;;;;;;;;;;;;;;-140.72;100.00;52500.44;5040749;28;19921;-73
2022/06/26 07:49:39;;;;;;;;;;;;;;;-140.72;100.00;52482.16;5043909;28;19968;-72
2022/06/26 07:52:04;;;;;;;;;;;;;;;-140.72;100.00;52512.59;5035904;28;19921;-73
2022/06/26 07:54:30;;;;;;;;;;;;;;;-140.72;100.00;52478.13;5034732;28;19959;-74
2022/06/26 07:56:55;;;;;;;;;;;;;;;-140.72;100.00;52482.16;5036485;28;19921;-72
2022/06/26 07:59:20;;;;;;;;;;;;;;;-140.72;100.00;52474.06;5035353;28;19917;-73
2022/06/26 08:01:45;;;;;;;;;;;;;;;-140.72;100.00;52459.84;5036797;28;20040;-73
2022/06/26 08:04:11;;;;;;;;;;;;;;;-140.72;100.00;52480.16;5051780;28;19917;-73
2022/06/26 08:06:36;;;;;;;;;;;;;;;-140.72;100.00;52488.25;5054208;28;19921;-72
2022/06/26 08:09:01;;;;;;;;;;;;;;;-140.72;100.00;52467.97;5038429;28;20267;-72
2022/06/26 08:11:27;;;;;;;;;;;;;;;-140.72;100.00;52433.47;5034849;28;20278;-72
2022/06/26 08:13:52;;;;;;;;;;;;;;;-140.72;100.00;52455.78;5035731;28;19932;-71
2022/06/26 08:16:18;;;;;;;;;;;;;;;-140.72;100.00;52463.91;5038393;28;20404;-72
2022/06/26 08:18:43;;;;;;;;;;;;;;;-140.72;100.00;52439.56;5036767;28;20366;-71
2022/06/26 08:23:53;;;;;;;;;;;;;;;-140.72;100.00;52457.81;5030607;28;19968;-72
2022/06/26 08:26:18;;;;;;;;;;;;;;;-140.72;100.00;52415.22;5030598;28;19925;-73
2022/06/26 08:28:43;;;;;;;;;;;;;;;-140.72;100.00;52423.31;5032113;28;20432;-73
2022/06/26 08:31:08;;;;;;;;;;;;;;;-140.72;100.00;52425.34;5031110;28;19995;-73
2022/06/26 08:33:34;;;;;;;;;;;;;;;-140.72;100.00;52427.38;5030781;28;19949;-72
2022/06/26 08:35:59;;;;;;;;;;;;;;;-140.72;100.00;52433.47;5031216;28;19960;-73
2022/06/26 08:38:24;;;;;;;;;;;;;;;-140.72;100.00;52435.50;5061652;28;19921;-72
2022/06/26 08:40:50;;;;;;;;;;;;;;;-140.72;100.00;52474.06;5048270;28;19921;-72
2022/06/26 08:43:19;;;;;;;;;;;;;;;-140.72;100.00;52421.28;5034281;28;19944;-72
2022/06/26 08:45:45;;;;;;;;;;;;;;;-140.72;100.00;52445.66;5033782;28;19971;-73
2022/06/26 08:48:12;;;;;;;;;;;;;;;-140.72;100.00;52459.84;5033996;28;19970;-72
2022/06/26 08:50:38;;;;;;;;;;;;;;;-140.72;100.00;52480.16;5035179;28;19924;-73
2022/06/26 08:53:03;;;;;;;;;;;;;;;-140.72;100.00;52435.50;5033843;28;20363;-73
2022/06/26 08:55:28;;;;;;;;;;;;;;;-140.72;100.00;52431.44;5034595;28;19928;-72
2022/06/26 08:57:53;;;;;;;;;;;;;;;-140.72;100.00;52447.69;5033182;28;19975;-73
2022/06/26 09:00:19;;;;;;;;;;;;;;;-140.72;100.00;52439.56;5052981;28;19947;-74
2022/06/26 09:02:44;;;;;;;;;;;;;;;-140.72;100.00;52384.78;5043159;28;20008;-73
2022/06/26 09:05:10;;;;;;;;;;;;;;;-140.72;100.00;52362.44;5052178;28;19990;-72
2022/06/26 09:07:45;;;;;;;;;;;;;;;-140.72;100.00;52325.94;5046537;28;20359;-73
2022/06/26 09:10:11;;;;;;;;;;;;;;;-140.72;100.00;52415.22;5050320;28;19927;-73
2022/06/26 09:12:36;;;;;;;;;;;;;;;-140.72;100.00;52364.47;5062570;28;19964;-72
2022/06/26 09:15:02;;;;;;;;;;;;;;;-140.72;100.00;52325.94;5066078;28;19967;-74
2022/06/26 09:17:27;;;;;;;;;;;;;;;-140.72;100.00;52342.16;5048923;28;19960;-73
2022/06/26 09:19:54;;;;;;;;;;;;;;;-140.72;100.00;52380.72;5048707;28;19921;-73
2022/06/26 09:22:22;;;;;;;;;;;;;;;-140.72;100.00;52421.28;5049564;28;20006;-74
2022/06/26 09:24:53;;;;;;;;;;;;;;;-140.72;100.00;52405.06;5045996;28;20020;-73
2022/06/26 09:27:18;;;;;;;;;;;;;;;-140.72;100.00;52382.75;5045217;28;20386;-73
2022/06/26 09:29:50;;;;;;;;;;;;;;;-140.72;100.00;52384.78;5064246;28;19932;-75
2022/06/26 09:32:17;;;;;;;;;;;;;;;-140.72;100.00;52362.44;5062132;28;19921;-75
2022/06/26 09:34:45;;;;;;;;;;;;;;;-140.72;100.00;52372.59;5046054;28;20418;-74
2022/06/26 09:37:11;;;;;;;;;;;;;;;-140.72;100.00;52315.78;5053813;28;19985;-76
2022/06/26 09:39:36;;;;;;;;;;;;;;;-140.72;100.00;52386.81;5043289;28;20307;-74
2022/06/26 09:42:21;;;;;;;;;;;;;;;-140.72;100.00;52342.16;5077794;28;20046;-73
2022/06/26 09:44:53;;;;;;;;;;;;;;;-140.72;100.00;52293.47;5041160;28;19992;-75
2022/06/26 09:47:26;;;;;;;;;;;;;;;-140.72;100.00;52313.75;5042704;28;20001;-74
2022/06/26 09:49:53;;;;;;;;;;;;;;;-140.72;100.00;52309.69;5074680;28;19921;-74
2022/06/26 09:52:20;;;;;;;;;;;;;;;-140.72;100.00;52279.25;5057827;28;19975;-74
2022/06/26 09:54:46;;;;;;;;;;;;;;;-140.72;100.00;52299.56;5038053;28;19993;-76
2022/06/26 09:57:11;;;;;;;;;;;;;;;-140.72;100.00;52325.94;5041488;28;19921;-74
2022/06/26 09:59:38;;;;;;;;;;;;;;;-140.72;100.00;52293.47;5041536;28;19928;-74
2022/06/26 10:07:32;;;;;;;;;;;;;;;-140.72;100.00;52295.50;5051951;28;19939;-75
2022/06/26 10:09:58;;;;;;;;;;;;;;;-140.72;100.00;52325.94;5043208;28;19948;-75
2022/06/26 10:12:24;;;;;;;;;;;;;;;-140.72;100.00;52299.56;5043203;28;19928;-74
2022/06/26 10:14:53;;;;;;;;;;;;;;;-140.72;100.00;52325.94;5067926;28;20039;-77
2022/06/26 10:17:37;;;;;;;;;;;;;;;-140.72;100.00;52327.97;5055900;28;19925;-76
2022/06/26 10:20:04;;;;;;;;;;;;;;;-140.72;100.00;52305.63;5061328;28;19968;-76
2022/06/26 10:22:39;;;;;;;;;;;;;;;-140.72;100.00;52332.03;5049333;28;19921;-73
2022/06/26 10:25:05;;;;;;;;;;;;;;;-140.72;100.00;52336.06;5052243;28;19939;-78
2022/06/26 10:27:34;;;;;;;;;;;;;;;-140.72;100.00;52382.75;5062683;28;19935;-75
2022/06/26 10:30:10;;;;;;;;;;;;;;;-140.72;100.00;52388.84;5045309;28;19917;-75
2022/06/26 10:32:36;;;;;;;;;;;;;;;-140.72;100.00;52354.34;5064625;28;20022;-76
2022/06/26 10:35:03;;;;;;;;;;;;;;;-140.72;100.00;52336.06;5075526;28;20285;-75
2022/06/26 10:37:38;;;;;;;;;;;;;;;-140.72;100.00;52394.91;5041969;28;19928;-75
2022/06/26 10:40:11;;;;;;;;;;;;;;;-140.72;100.00;52360.44;5047401;28;19944;-76
2022/06/26 10:42:54;;;;;;;;;;;;;;;-140.72;100.00;52301.59;5044570;28;19921;-74
2022/06/26 10:45:23;;;;;;;;;;;;;;;-140.72;100.00;52301.59;5056695;28;19921;-71
2022/06/26 10:47:53;;;;;;;;;;;;;;;-140.72;100.00;52366.50;5040430;28;19921;-69
2022/06/26 10:50:32;;;;;;;;;;;;;;;-140.72;100.00;52334.03;5041896;28;19922;-71
2022/06/26 10:53:10;;;;;;;;;;;;;;;-140.72;100.00;52366.50;5043931;28;19921;-71
2022/06/26 10:55:35;;;;;;;;;;;;;;;-140.72;100.00;52344.19;5044510;28;19971;-72
2022/06/26 10:58:00;;;;;;;;;;;;;;;-140.72;100.00;52362.44;5042118;28;19943;-72
2022/06/26 11:00:28;;;;;;;;;;;;;;;-140.72;100.00;52334.03;5044343;28;19928;-73
2022/06/26 11:02:53;;;;;;;;;;;;;;;-140.72;100.00;52362.44;5042589;28;19940;-72
2022/06/26 11:05:20;;;;;;;;;;;;;;;-140.72;100.00;52323.91;5040596;28;19921;-72
2022/06/26 11:07:53;;;;;;;;;;;;;;;-140.72;100.00;52293.47;5044738;28;19924;-73
2022/06/26 11:10:20;;;;;;;;;;;;;;;-140.72;100.00;52358.41;5041717;28;19929;-72
2022/06/26 11:12:46;;;;;;;;;;;;;;;-140.72;100.00;52330.00;5041860;28;20008;-72
2022/06/26 11:15:22;;;;;;;;;;;;;;;-140.72;100.00;52411.16;5042901;28;19921;-71
2022/06/26 11:17:51;;;;;;;;;;;;;;;-140.72;100.00;52382.75;5042185;28;20004;-72
2022/06/26 11:23:00;;;;;;;;;;;;;;;-140.72;100.00;52405.06;5040366;28;20425;-72
2022/06/26 11:25:25;;;;;;;;;;;;;;;-140.72;100.00;52421.28;5040637;28;19925;-72
2022/06/26 11:27:52;;;;;;;;;;;;;;;-140.72;100.00;52439.56;5039477;28;19921;-71
2022/06/26 11:30:21;;;;;;;;;;;;;;;-140.72;100.00;52433.47;5040688;28;19921;-71
2022/06/26 11:32:46;;;;;;;;;;;;;;;-140.72;100.00;52374.63;5040968;28;20004;-72
2022/06/26 11:35:11;;;;;;;;;;;;;;;-140.72;100.00;52358.41;5040166;28;19956;-71
2022/06/26 11:37:37;;;;;;;;;;;;;;;-140.72;100.00;52396.94;5040264;28;19920;-71
2022/06/26 11:40:16;;;;;;;;;;;;;;;-140.72;100.00;52386.81;5037163;28;19925;-72
2022/06/26 11:42:41;;;;;;;;;;;;;;;-140.72;100.00;52390.84;5036020;28;19979;-71
2022/06/26 11:45:06;;;;;;;;;;;;;;;-140.72;100.00;52398.97;5069375;28;19933;-70
2022/06/26 11:47:34;;;;;;;;;;;;;;;-140.72;100.00;52372.59;5041733;28;19921;-70
2022/06/26 11:49:59;;;;;;;;;;;;;;;-140.72;100.00;52273.19;5044095;28;19927;-73
2022/06/26 11:52:24;;;;;;;;;;;;;;;-140.72;100.00;52185.94;5045291;28;20311;-74
2022/06/26 11:55:00;;;;;;;;;;;;;;;-140.72;100.00;52256.94;5046469;28;19988;-75
2022/06/26 11:57:25;;;;;;;;;;;;;;;-140.72;100.00;52234.63;5051909;28;19917;-73
2022/06/26 11:59:51;;;;;;;;;;;;;;;-140.72;100.00;52183.91;5036098;28;19917;-74
2022/06/26 12:02:23;;;;;;;;;;;;;;;-140.72;100.00;52147.38;5040048;28;19921;-73
2022/06/26 12:04:58;;;;;;;;;;;;;;;-140.72;100.00;52110.84;5047549;28;19986;-73
2022/06/26 12:07:24;;;;;;;;;;;;;;;-140.72;100.00;52074.34;5061650;28;20370;-74
2022/06/26 12:09:49;;;;;;;;;;;;;;;-140.72;100.00;52082.44;5036481;28;19928;-71
2022/06/26 12:12:15;;;;;;;;;;;;;;;-140.72;100.00;52078.38;5039218;28;19921;-72
2022/06/26 12:14:50;;;;;;;;;;;;;;;-140.72;100.00;52228.53;5039218;28;19924;-71
2022/06/26 12:17:20;;;;;;;;;;;;;;;-140.72;100.00;52064.19;5038491;28;19924;-71
2022/06/26 12:19:46;;;;;;;;;;;;;;;-140.72;100.00;52098.69;5049547;28;19929;-73
2022/06/26 12:22:11;;;;;;;;;;;;;;;-140.72;100.00;52169.69;5040089;28;19917;-70
2022/06/26 12:24:36;;;;;;;;;;;;;;;-140.72;100.00;52147.38;5041621;28;19928;-75
2022/06/26 12:27:02;;;;;;;;;;;;;;;-140.72;100.00;52185.94;5040452;28;19929;-71
2022/06/26 12:29:27;;;;;;;;;;;;;;;-140.72;100.00;52149.41;5038468;28;20012;-72
2022/06/26 12:31:52;;;;;;;;;;;;;;;-140.72;100.00;52214.34;5037492;28;19998;-71